Terminal Aerodrome Forecast
Issued by NWS Amarillo, TX

Home | Current Version | Previous Version | Text Only | Print | Product List | Glossary On
Versions: 1 2 3 4 5 6 7 8 9 10 11 12 13 14 15 16
336
FTUS44 KAMA 210520
TAFAMA
TAF
KAMA 210520Z 2106/2206 19008KT P6SM BKN250
     FM210900 33009KT P6SM BKN200
     FM211600 01020G30KT P6SM BKN120
     FM220100 03010KT P6SM BKN200=

USA.gov is the U.S. government's official web portal to all federal, state and local government web resources and services.